sensor_id;sensor_type;location;lat;lon;timestamp;P1;durP1;ratioP1;P2;durP2;ratioP2
43226;SDS011;28839;52.404;9.808;2023-05-15T00:05:23;10.57;;;9.60;;
43226;SDS011;28839;52.404;9.808;2023-05-15T00:12:17;12.02;;;10.88;;
43226;SDS011;28839;52.404;9.808;2023-05-15T00:19:11;12.48;;;10.20;;
43226;SDS011;28839;52.404;9.808;2023-05-15T00:26:06;12.75;;;10.98;;
43226;SDS011;28839;52.404;9.808;2023-05-15T00:33:00;12.68;;;10.80;;
43226;SDS011;28839;52.404;9.808;2023-05-15T00:39:54;13.23;;;11.50;;
43226;SDS011;28839;52.404;9.808;2023-05-15T00:46:49;15.35;;;11.75;;
43226;SDS011;28839;52.404;9.808;2023-05-15T00:53:45;12.93;;;11.60;;
43226;SDS011;28839;52.404;9.808;2023-05-15T01:00:39;14.47;;;12.03;;
43226;SDS011;28839;52.404;9.808;2023-05-15T01:07:37;13.90;;;12.55;;
43226;SDS011;28839;52.404;9.808;2023-05-15T01:14:37;15.30;;;13.02;;
43226;SDS011;28839;52.404;9.808;2023-05-15T01:29:11;14.93;;;13.43;;
43226;SDS011;28839;52.404;9.808;2023-05-15T01:36:13;14.98;;;13.00;;
43226;SDS011;28839;52.404;9.808;2023-05-15T01:43:12;19.80;;;13.98;;
43226;SDS011;28839;52.404;9.808;2023-05-15T01:50:12;14.48;;;12.95;;
43226;SDS011;28839;52.404;9.808;2023-05-15T01:57:08;15.27;;;12.75;;
43226;SDS011;28839;52.404;9.808;2023-05-15T02:04:02;15.18;;;13.57;;
43226;SDS011;28839;52.404;9.808;2023-05-15T02:10:58;15.93;;;14.33;;
43226;SDS011;28839;52.404;9.808;2023-05-15T02:17:55;17.80;;;14.65;;
43226;SDS011;28839;52.404;9.808;2023-05-15T02:24:49;16.33;;;14.57;;
43226;SDS011;28839;52.404;9.808;2023-05-15T02:31:46;17.98;;;16.02;;
43226;SDS011;28839;52.404;9.808;2023-05-15T02:38:51;16.60;;;14.90;;
43226;SDS011;28839;52.404;9.808;2023-05-15T02:45:46;17.25;;;15.55;;
43226;SDS011;28839;52.404;9.808;2023-05-15T02:52:42;15.88;;;14.38;;
43226;SDS011;28839;52.404;9.808;2023-05-15T02:59:35;16.95;;;14.95;;
43226;SDS011;28839;52.404;9.808;2023-05-15T03:06:29;16.30;;;14.77;;
43226;SDS011;28839;52.404;9.808;2023-05-15T03:13:24;17.33;;;15.30;;
43226;SDS011;28839;52.404;9.808;2023-05-15T03:20:18;17.48;;;15.68;;
43226;SDS011;28839;52.404;9.808;2023-05-15T03:27:12;15.20;;;13.62;;
43226;SDS011;28839;52.404;9.808;2023-05-15T03:34:07;16.75;;;15.15;;
43226;SDS011;28839;52.404;9.808;2023-05-15T03:41:01;16.12;;;14.45;;
43226;SDS011;28839;52.404;9.808;2023-05-15T03:47:55;16.40;;;14.90;;
43226;SDS011;28839;52.404;9.808;2023-05-15T03:54:50;16.75;;;14.90;;
43226;SDS011;28839;52.404;9.808;2023-05-15T04:01:44;17.27;;;15.55;;
43226;SDS011;28839;52.404;9.808;2023-05-15T04:08:37;18.45;;;15.23;;
43226;SDS011;28839;52.404;9.808;2023-05-15T04:15:33;17.85;;;15.27;;
43226;SDS011;28839;52.404;9.808;2023-05-15T04:22:27;17.25;;;15.48;;
43226;SDS011;28839;52.404;9.808;2023-05-15T04:29:21;16.73;;;15.15;;
43226;SDS011;28839;52.404;9.808;2023-05-15T04:36:16;16.62;;;15.02;;
43226;SDS011;28839;52.404;9.808;2023-05-15T04:43:10;17.12;;;15.15;;
43226;SDS011;28839;52.404;9.808;2023-05-15T04:50:04;17.27;;;15.57;;
43226;SDS011;28839;52.404;9.808;2023-05-15T04:57:00;18.62;;;16.67;;
43226;SDS011;28839;52.404;9.808;2023-05-15T05:03:54;16.67;;;14.52;;
43226;SDS011;28839;52.404;9.808;2023-05-15T05:10:48;20.85;;;17.15;;
43226;SDS011;28839;52.404;9.808;2023-05-15T05:17:48;18.35;;;15.90;;
43226;SDS011;28839;52.404;9.808;2023-05-15T05:24:42;16.98;;;14.98;;
43226;SDS011;28839;52.404;9.808;2023-05-15T05:31:36;18.75;;;15.25;;
43226;SDS011;28839;52.404;9.808;2023-05-15T05:38:31;16.33;;;14.73;;
43226;SDS011;28839;52.404;9.808;2023-05-15T05:45:25;23.38;;;16.10;;
43226;SDS011;28839;52.404;9.808;2023-05-15T05:52:18;16.92;;;14.10;;
43226;SDS011;28839;52.404;9.808;2023-05-15T05:59:14;20.67;;;15.43;;
43226;SDS011;28839;52.404;9.808;2023-05-15T06:06:07;16.50;;;14.90;;
43226;SDS011;28839;52.404;9.808;2023-05-15T06:13:01;15.97;;;14.37;;
43226;SDS011;28839;52.404;9.808;2023-05-15T06:19:57;14.60;;;13.32;;
43226;SDS011;28839;52.404;9.808;2023-05-15T06:26:50;16.15;;;13.62;;
43226;SDS011;28839;52.404;9.808;2023-05-15T06:33:44;16.10;;;13.97;;
43226;SDS011;28839;52.404;9.808;2023-05-15T06:40:39;15.82;;;14.20;;
43226;SDS011;28839;52.404;9.808;2023-05-15T06:47:33;20.60;;;14.18;;
43226;SDS011;28839;52.404;9.808;2023-05-15T06:54:27;14.60;;;12.27;;
43226;SDS011;28839;52.404;9.808;2023-05-15T07:01:23;17.30;;;12.20;;
43226;SDS011;28839;52.404;9.808;2023-05-15T07:08:16;11.65;;;10.45;;
43226;SDS011;28839;52.404;9.808;2023-05-15T07:15:10;14.53;;;11.57;;
43226;SDS011;28839;52.404;9.808;2023-05-15T07:22:06;19.67;;;11.40;;
43226;SDS011;28839;52.404;9.808;2023-05-15T07:28:59;16.65;;;13.50;;
43226;SDS011;28839;52.404;9.808;2023-05-15T07:35:53;14.00;;;10.77;;
43226;SDS011;28839;52.404;9.808;2023-05-15T07:42:48;11.93;;;10.63;;
43226;SDS011;28839;52.404;9.808;2023-05-15T07:49:42;16.95;;;10.73;;
43226;SDS011;28839;52.404;9.808;2023-05-15T07:56:36;11.53;;;9.23;;
43226;SDS011;28839;52.404;9.808;2023-05-15T08:03:32;14.82;;;10.27;;
43226;SDS011;28839;52.404;9.808;2023-05-15T08:10:25;11.95;;;9.43;;
43226;SDS011;28839;52.404;9.808;2023-05-15T08:17:19;15.90;;;9.17;;
43226;SDS011;28839;52.404;9.808;2023-05-15T08:24:15;15.75;;;9.63;;
43226;SDS011;28839;52.404;9.808;2023-05-15T08:31:09;11.63;;;8.60;;
43226;SDS011;28839;52.404;9.808;2023-05-15T08:38:02;13.02;;;8.80;;
43226;SDS011;28839;52.404;9.808;2023-05-15T08:44:58;9.80;;;7.12;;
43226;SDS011;28839;52.404;9.808;2023-05-15T08:51:52;10.45;;;7.43;;
43226;SDS011;28839;52.404;9.808;2023-05-15T08:58:47;10.85;;;8.55;;
43226;SDS011;28839;52.404;9.808;2023-05-15T09:05:43;13.02;;;7.85;;
43226;SDS011;28839;52.404;9.808;2023-05-15T09:12:38;8.65;;;6.87;;
43226;SDS011;28839;52.404;9.808;2023-05-15T09:19:35;9.00;;;6.40;;
43226;SDS011;28839;52.404;9.808;2023-05-15T09:26:32;9.90;;;5.70;;
43226;SDS011;28839;52.404;9.808;2023-05-15T09:33:26;8.63;;;4.95;;
43226;SDS011;28839;52.404;9.808;2023-05-15T09:40:22;6.15;;;4.65;;
43226;SDS011;28839;52.404;9.808;2023-05-15T09:47:17;8.32;;;5.30;;
43226;SDS011;28839;52.404;9.808;2023-05-15T09:54:13;7.40;;;4.37;;
43226;SDS011;28839;52.404;9.808;2023-05-15T10:01:08;12.45;;;5.15;;
43226;SDS011;28839;52.404;9.808;2023-05-15T10:08:05;9.45;;;4.03;;
43226;SDS011;28839;52.404;9.808;2023-05-15T10:14:59;6.65;;;5.32;;
43226;SDS011;28839;52.404;9.808;2023-05-15T10:21:53;6.57;;;5.12;;
43226;SDS011;28839;52.404;9.808;2023-05-15T10:28:51;8.35;;;4.82;;
43226;SDS011;28839;52.404;9.808;2023-05-15T10:35:47;8.32;;;4.45;;
43226;SDS011;28839;52.404;9.808;2023-05-15T10:42:43;8.05;;;4.25;;
43226;SDS011;28839;52.404;9.808;2023-05-15T10:49:39;9.65;;;5.37;;
43226;SDS011;28839;52.404;9.808;2023-05-15T10:56:33;5.75;;;4.85;;
43226;SDS011;28839;52.404;9.808;2023-05-15T11:03:36;9.20;;;4.57;;
43226;SDS011;28839;52.404;9.808;2023-05-15T11:10:35;9.77;;;5.12;;
43226;SDS011;28839;52.404;9.808;2023-05-15T11:17:30;7.85;;;4.45;;
43226;SDS011;28839;52.404;9.808;2023-05-15T11:24:28;11.00;;;5.57;;
43226;SDS011;28839;52.404;9.808;2023-05-15T11:31:27;6.10;;;5.25;;
43226;SDS011;28839;52.404;9.808;2023-05-15T11:38:22;10.02;;;5.28;;
43226;SDS011;28839;52.404;9.808;2023-05-15T11:45:17;8.02;;;5.43;;
43226;SDS011;28839;52.404;9.808;2023-05-15T11:52:12;7.15;;;5.35;;
43226;SDS011;28839;52.404;9.808;2023-05-15T11:59:06;7.05;;;4.90;;
43226;SDS011;28839;52.404;9.808;2023-05-15T12:06:04;6.22;;;5.47;;
43226;SDS011;28839;52.404;9.808;2023-05-15T12:13:00;6.45;;;5.20;;
43226;SDS011;28839;52.404;9.808;2023-05-15T12:19:54;9.25;;;5.65;;
43226;SDS011;28839;52.404;9.808;2023-05-15T12:26:49;8.18;;;5.62;;
43226;SDS011;28839;52.404;9.808;2023-05-15T12:33:44;6.95;;;5.65;;
43226;SDS011;28839;52.404;9.808;2023-05-15T12:40:38;8.88;;;5.87;;
43226;SDS011;28839;52.404;9.808;2023-05-15T12:54:27;9.50;;;5.80;;
43226;SDS011;28839;52.404;9.808;2023-05-15T13:01:21;7.87;;;6.43;;
43226;SDS011;28839;52.404;9.808;2023-05-15T13:08:15;13.18;;;6.53;;
43226;SDS011;28839;52.404;9.808;2023-05-15T13:15:22;8.43;;;5.50;;
43226;SDS011;28839;52.404;9.808;2023-05-15T13:22:18;10.35;;;4.80;;
43226;SDS011;28839;52.404;9.808;2023-05-15T13:29:12;10.32;;;6.35;;
43226;SDS011;28839;52.404;9.808;2023-05-15T13:36:07;8.05;;;4.97;;
43226;SDS011;28839;52.404;9.808;2023-05-15T13:43:01;7.12;;;5.07;;
43226;SDS011;28839;52.404;9.808;2023-05-15T13:49:57;6.35;;;5.68;;
43226;SDS011;28839;52.404;9.808;2023-05-15T13:56:52;10.00;;;7.12;;
43226;SDS011;28839;52.404;9.808;2023-05-15T14:03:46;10.82;;;7.37;;
43226;SDS011;28839;52.404;9.808;2023-05-15T14:10:40;13.25;;;7.90;;
43226;SDS011;28839;52.404;9.808;2023-05-15T14:17:36;9.75;;;7.05;;
43226;SDS011;28839;52.404;9.808;2023-05-15T14:24:29;12.57;;;5.68;;
43226;SDS011;28839;52.404;9.808;2023-05-15T14:31:23;9.27;;;5.90;;
43226;SDS011;28839;52.404;9.808;2023-05-15T14:38:19;5.60;;;5.00;;
43226;SDS011;28839;52.404;9.808;2023-05-15T14:45:13;7.00;;;4.28;;
43226;SDS011;28839;52.404;9.808;2023-05-15T14:52:07;6.10;;;4.12;;
43226;SDS011;28839;52.404;9.808;2023-05-15T14:59:03;4.68;;;4.12;;
43226;SDS011;28839;52.404;9.808;2023-05-15T15:05:58;4.07;;;3.40;;
43226;SDS011;28839;52.404;9.808;2023-05-15T15:12:52;4.47;;;3.33;;
43226;SDS011;28839;52.404;9.808;2023-05-15T15:19:47;4.55;;;3.00;;
43226;SDS011;28839;52.404;9.808;2023-05-15T15:26:41;4.18;;;2.50;;
43226;SDS011;28839;52.404;9.808;2023-05-15T15:33:35;5.97;;;2.90;;
43226;SDS011;28839;52.404;9.808;2023-05-15T15:40:30;5.05;;;3.33;;
43226;SDS011;28839;52.404;9.808;2023-05-15T15:47:24;5.78;;;3.65;;
43226;SDS011;28839;52.404;9.808;2023-05-15T15:54:20;4.65;;;4.15;;
43226;SDS011;28839;52.404;9.808;2023-05-15T16:01:16;6.37;;;5.00;;
43226;SDS011;28839;52.404;9.808;2023-05-15T16:08:10;8.55;;;5.93;;
43226;SDS011;28839;52.404;9.808;2023-05-15T16:15:04;8.30;;;4.93;;
43226;SDS011;28839;52.404;9.808;2023-05-15T16:22:01;6.57;;;5.18;;
43226;SDS011;28839;52.404;9.808;2023-05-15T16:28:55;6.97;;;5.12;;
43226;SDS011;28839;52.404;9.808;2023-05-15T16:35:49;7.03;;;5.53;;
43226;SDS011;28839;52.404;9.808;2023-05-15T16:42:44;5.97;;;3.97;;
43226;SDS011;28839;52.404;9.808;2023-05-15T16:49:38;4.65;;;4.25;;
43226;SDS011;28839;52.404;9.808;2023-05-15T16:56:32;6.23;;;5.57;;
43226;SDS011;28839;52.404;9.808;2023-05-15T17:03:28;6.93;;;6.12;;
43226;SDS011;28839;52.404;9.808;2023-05-15T17:10:23;8.73;;;6.00;;
43226;SDS011;28839;52.404;9.808;2023-05-15T17:17:17;8.68;;;6.72;;
43226;SDS011;28839;52.404;9.808;2023-05-15T17:24:12;12.87;;;7.47;;
43226;SDS011;28839;52.404;9.808;2023-05-15T17:31:07;13.60;;;7.80;;
43226;SDS011;28839;52.404;9.808;2023-05-15T17:38:01;14.60;;;9.82;;
43226;SDS011;28839;52.404;9.808;2023-05-15T17:44:57;10.33;;;8.93;;
43226;SDS011;28839;52.404;9.808;2023-05-15T17:51:51;12.27;;;9.05;;
43226;SDS011;28839;52.404;9.808;2023-05-15T17:58:45;10.10;;;9.03;;
43226;SDS011;28839;52.404;9.808;2023-05-15T18:05:40;10.55;;;8.15;;
43226;SDS011;28839;52.404;9.808;2023-05-15T18:12:34;10.02;;;7.18;;
43226;SDS011;28839;52.404;9.808;2023-05-15T18:19:28;9.13;;;6.00;;
43226;SDS011;28839;52.404;9.808;2023-05-15T18:26:23;8.03;;;5.63;;
43226;SDS011;28839;52.404;9.808;2023-05-15T18:33:20;9.10;;;5.37;;
43226;SDS011;28839;52.404;9.808;2023-05-15T18:40:13;7.17;;;5.90;;
43226;SDS011;28839;52.404;9.808;2023-05-15T18:47:09;8.83;;;6.70;;
43226;SDS011;28839;52.404;9.808;2023-05-15T18:54:03;7.15;;;5.37;;
43226;SDS011;28839;52.404;9.808;2023-05-15T19:00:56;6.00;;;5.27;;
43226;SDS011;28839;52.404;9.808;2023-05-15T19:07:52;7.00;;;5.80;;
43226;SDS011;28839;52.404;9.808;2023-05-15T19:14:46;7.95;;;5.70;;
43226;SDS011;28839;52.404;9.808;2023-05-15T19:21:40;8.63;;;6.03;;
43226;SDS011;28839;52.404;9.808;2023-05-15T19:28:35;7.90;;;6.30;;
43226;SDS011;28839;52.404;9.808;2023-05-15T19:35:29;9.25;;;6.05;;
43226;SDS011;28839;52.404;9.808;2023-05-15T19:42:23;10.45;;;6.82;;
43226;SDS011;28839;52.404;9.808;2023-05-15T19:49:18;7.53;;;6.83;;
43226;SDS011;28839;52.404;9.808;2023-05-15T19:56:12;9.32;;;6.00;;
43226;SDS011;28839;52.404;9.808;2023-05-15T20:03:06;6.60;;;6.10;;
43226;SDS011;28839;52.404;9.808;2023-05-15T20:10:01;7.27;;;6.20;;
43226;SDS011;28839;52.404;9.808;2023-05-15T20:16:55;10.85;;;7.70;;
43226;SDS011;28839;52.404;9.808;2023-05-15T20:23:49;13.32;;;9.57;;
43226;SDS011;28839;52.404;9.808;2023-05-15T20:30:44;11.55;;;9.93;;
43226;SDS011;28839;52.404;9.808;2023-05-15T20:37:38;11.38;;;9.95;;
43226;SDS011;28839;52.404;9.808;2023-05-15T20:44:33;17.30;;;10.63;;
43226;SDS011;28839;52.404;9.808;2023-05-15T20:51:30;16.08;;;11.40;;
43226;SDS011;28839;52.404;9.808;2023-05-15T20:58:24;17.02;;;12.13;;
43226;SDS011;28839;52.404;9.808;2023-05-15T21:05:18;17.13;;;12.27;;
43226;SDS011;28839;52.404;9.808;2023-05-15T21:12:14;17.65;;;14.65;;
43226;SDS011;28839;52.404;9.808;2023-05-15T21:19:07;19.67;;;14.75;;
43226;SDS011;28839;52.404;9.808;2023-05-15T21:26:01;18.37;;;15.13;;
43226;SDS011;28839;52.404;9.808;2023-05-15T21:32:56;18.73;;;16.83;;
43226;SDS011;28839;52.404;9.808;2023-05-15T21:39:50;18.48;;;16.62;;
43226;SDS011;28839;52.404;9.808;2023-05-15T21:46:44;22.58;;;18.42;;
43226;SDS011;28839;52.404;9.808;2023-05-15T21:53:39;17.37;;;15.35;;
43226;SDS011;28839;52.404;9.808;2023-05-15T22:00:33;15.23;;;13.38;;
43226;SDS011;28839;52.404;9.808;2023-05-15T22:07:27;13.98;;;12.45;;
43226;SDS011;28839;52.404;9.808;2023-05-15T22:14:22;14.13;;;11.40;;
43226;SDS011;28839;52.404;9.808;2023-05-15T22:21:16;16.92;;;12.10;;
43226;SDS011;28839;52.404;9.808;2023-05-15T22:28:10;21.92;;;14.25;;
43226;SDS011;28839;52.404;9.808;2023-05-15T22:35:06;17.42;;;14.15;;
43226;SDS011;28839;52.404;9.808;2023-05-15T22:42:00;22.73;;;16.90;;
43226;SDS011;28839;52.404;9.808;2023-05-15T22:48:54;22.35;;;18.08;;
43226;SDS011;28839;52.404;9.808;2023-05-15T22:55:51;21.05;;;18.60;;
43226;SDS011;28839;52.404;9.808;2023-05-15T23:02:45;25.92;;;19.62;;
43226;SDS011;28839;52.404;9.808;2023-05-15T23:09:39;23.80;;;18.77;;
43226;SDS011;28839;52.404;9.808;2023-05-15T23:16:34;24.90;;;19.10;;
43226;SDS011;28839;52.404;9.808;2023-05-15T23:23:28;23.52;;;19.98;;
43226;SDS011;28839;52.404;9.808;2023-05-15T23:30:22;27.50;;;19.92;;
43226;SDS011;28839;52.404;9.808;2023-05-15T23:37:17;15.15;;;11.73;;
43226;SDS011;28839;52.404;9.808;2023-05-15T23:44:11;9.73;;;8.05;;
43226;SDS011;28839;52.404;9.808;2023-05-15T23:51:05;11.07;;;8.00;;
43226;SDS011;28839;52.404;9.808;2023-05-15T23:58:02;8.80;;;6.95;;
